sensor_id;sensor_type;location;lat;lon;timestamp;P1;durP1;ratioP1;P2;durP2;ratioP2
60243;SDS011;46106;51.468;5.814;2022-07-21T00:01:48;18.52;;;14.02;;
60243;SDS011;46106;51.468;5.814;2022-07-21T00:04:15;20.20;;;13.15;;
60243;SDS011;46106;51.468;5.814;2022-07-21T00:06:41;20.52;;;14.45;;
60243;SDS011;46106;51.468;5.814;2022-07-21T00:09:07;19.15;;;14.07;;
60243;SDS011;46106;51.468;5.814;2022-07-21T00:11:34;24.75;;;14.20;;
60243;SDS011;46106;51.468;5.814;2022-07-21T00:13:59;22.10;;;14.35;;
60243;SDS011;46106;51.468;5.814;2022-07-21T00:16:25;23.27;;;14.27;;
60243;SDS011;46106;51.468;5.814;2022-07-21T00:18:51;20.35;;;14.48;;
60243;SDS011;46106;51.468;5.814;2022-07-21T00:21:16;17.88;;;14.38;;
60243;SDS011;46106;51.468;5.814;2022-07-21T00:23:42;21.63;;;13.85;;
60243;SDS011;46106;51.468;5.814;2022-07-21T00:26:08;20.15;;;14.95;;
60243;SDS011;46106;51.468;5.814;2022-07-21T00:28:33;23.88;;;14.00;;
60243;SDS011;46106;51.468;5.814;2022-07-21T00:30:59;22.35;;;14.52;;
60243;SDS011;46106;51.468;5.814;2022-07-21T00:33:24;23.80;;;15.02;;
60243;SDS011;46106;51.468;5.814;2022-07-21T00:35:50;20.80;;;14.93;;
60243;SDS011;46106;51.468;5.814;2022-07-21T00:38:15;23.75;;;15.55;;
60243;SDS011;46106;51.468;5.814;2022-07-21T00:40:41;24.00;;;15.68;;
60243;SDS011;46106;51.468;5.814;2022-07-21T00:43:06;23.65;;;16.02;;
60243;SDS011;46106;51.468;5.814;2022-07-21T00:45:32;21.67;;;14.90;;
60243;SDS011;46106;51.468;5.814;2022-07-21T00:47:57;20.83;;;14.68;;
60243;SDS011;46106;51.468;5.814;2022-07-21T00:50:23;21.20;;;15.00;;
60243;SDS011;46106;51.468;5.814;2022-07-21T00:52:49;19.77;;;14.27;;
60243;SDS011;46106;51.468;5.814;2022-07-21T00:55:18;22.35;;;14.35;;
60243;SDS011;46106;51.468;5.814;2022-07-21T00:57:46;25.35;;;15.07;;
60243;SDS011;46106;51.468;5.814;2022-07-21T01:00:17;23.15;;;16.23;;
60243;SDS011;46106;51.468;5.814;2022-07-21T01:02:47;22.42;;;15.25;;
60243;SDS011;46106;51.468;5.814;2022-07-21T01:05:14;25.55;;;15.23;;
60243;SDS011;46106;51.468;5.814;2022-07-21T01:07:41;23.65;;;15.57;;
60243;SDS011;46106;51.468;5.814;2022-07-21T01:10:08;24.73;;;15.95;;
60243;SDS011;46106;51.468;5.814;2022-07-21T01:12:35;21.98;;;14.85;;
60243;SDS011;46106;51.468;5.814;2022-07-21T01:15:02;24.60;;;15.93;;
60243;SDS011;46106;51.468;5.814;2022-07-21T01:17:28;24.45;;;16.13;;
60243;SDS011;46106;51.468;5.814;2022-07-21T01:19:54;25.98;;;16.40;;
60243;SDS011;46106;51.468;5.814;2022-07-21T01:22:20;20.98;;;15.23;;
60243;SDS011;46106;51.468;5.814;2022-07-21T01:24:45;25.83;;;16.77;;
60243;SDS011;46106;51.468;5.814;2022-07-21T01:27:11;25.95;;;17.17;;
60243;SDS011;46106;51.468;5.814;2022-07-21T01:29:36;30.80;;;18.02;;
60243;SDS011;46106;51.468;5.814;2022-07-21T01:32:02;28.50;;;18.00;;
60243;SDS011;46106;51.468;5.814;2022-07-21T01:34:29;27.50;;;18.10;;
60243;SDS011;46106;51.468;5.814;2022-07-21T01:36:54;28.52;;;18.00;;
60243;SDS011;46106;51.468;5.814;2022-07-21T01:39:20;27.65;;;18.52;;
60243;SDS011;46106;51.468;5.814;2022-07-21T01:42:04;25.80;;;17.75;;
60243;SDS011;46106;51.468;5.814;2022-07-21T01:44:30;27.95;;;18.98;;
60243;SDS011;46106;51.468;5.814;2022-07-21T01:46:55;33.83;;;19.00;;
60243;SDS011;46106;51.468;5.814;2022-07-21T01:49:21;31.00;;;18.30;;
60243;SDS011;46106;51.468;5.814;2022-07-21T01:51:47;28.25;;;17.95;;
60243;SDS011;46106;51.468;5.814;2022-07-21T01:54:13;27.77;;;18.42;;
60243;SDS011;46106;51.468;5.814;2022-07-21T01:56:39;29.08;;;19.15;;
60243;SDS011;46106;51.468;5.814;2022-07-21T01:59:05;29.05;;;19.70;;
60243;SDS011;46106;51.468;5.814;2022-07-21T02:01:31;27.25;;;18.08;;
60243;SDS011;46106;51.468;5.814;2022-07-21T02:03:58;31.27;;;20.75;;
60243;SDS011;46106;51.468;5.814;2022-07-21T02:06:26;29.83;;;19.95;;
60243;SDS011;46106;51.468;5.814;2022-07-21T02:08:52;30.48;;;19.90;;
60243;SDS011;46106;51.468;5.814;2022-07-21T02:11:17;30.35;;;20.27;;
60243;SDS011;46106;51.468;5.814;2022-07-21T02:13:43;33.33;;;20.20;;
60243;SDS011;46106;51.468;5.814;2022-07-21T02:16:10;32.15;;;18.98;;
60243;SDS011;46106;51.468;5.814;2022-07-21T02:18:36;32.85;;;21.58;;
60243;SDS011;46106;51.468;5.814;2022-07-21T02:21:02;33.58;;;20.25;;
60243;SDS011;46106;51.468;5.814;2022-07-21T02:23:28;29.92;;;19.85;;
60243;SDS011;46106;51.468;5.814;2022-07-21T02:25:54;33.47;;;21.45;;
60243;SDS011;46106;51.468;5.814;2022-07-21T02:28:20;35.00;;;21.92;;
60243;SDS011;46106;51.468;5.814;2022-07-21T02:30:47;38.65;;;21.48;;
60243;SDS011;46106;51.468;5.814;2022-07-21T02:33:13;30.70;;;21.45;;
60243;SDS011;46106;51.468;5.814;2022-07-21T02:35:39;33.83;;;20.70;;
60243;SDS011;46106;51.468;5.814;2022-07-21T02:38:05;34.38;;;22.05;;
60243;SDS011;46106;51.468;5.814;2022-07-21T02:40:31;33.13;;;22.48;;
60243;SDS011;46106;51.468;5.814;2022-07-21T02:42:56;32.08;;;21.27;;
60243;SDS011;46106;51.468;5.814;2022-07-21T02:45:23;36.20;;;21.98;;
60243;SDS011;46106;51.468;5.814;2022-07-21T02:50:22;44.60;;;23.15;;
60243;SDS011;46106;51.468;5.814;2022-07-21T02:52:49;36.92;;;23.58;;
60243;SDS011;46106;51.468;5.814;2022-07-21T02:55:15;31.65;;;21.75;;
60243;SDS011;46106;51.468;5.814;2022-07-21T02:57:41;37.13;;;23.13;;
60243;SDS011;46106;51.468;5.814;2022-07-21T03:00:07;34.53;;;22.35;;
60243;SDS011;46106;51.468;5.814;2022-07-21T03:02:34;35.28;;;22.73;;
60243;SDS011;46106;51.468;5.814;2022-07-21T03:05:00;36.13;;;22.63;;
60243;SDS011;46106;51.468;5.814;2022-07-21T03:07:26;32.30;;;23.00;;
60243;SDS011;46106;51.468;5.814;2022-07-21T03:09:52;36.47;;;24.40;;
60243;SDS011;46106;51.468;5.814;2022-07-21T03:12:17;35.05;;;23.73;;
60243;SDS011;46106;51.468;5.814;2022-07-21T03:14:43;38.47;;;23.80;;
60243;SDS011;46106;51.468;5.814;2022-07-21T03:17:08;39.75;;;24.52;;
60243;SDS011;46106;51.468;5.814;2022-07-21T03:19:34;39.13;;;23.92;;
60243;SDS011;46106;51.468;5.814;2022-07-21T03:21:59;38.80;;;24.52;;
60243;SDS011;46106;51.468;5.814;2022-07-21T03:24:25;41.03;;;26.27;;
60243;SDS011;46106;51.468;5.814;2022-07-21T03:26:51;38.40;;;25.08;;
60243;SDS011;46106;51.468;5.814;2022-07-21T03:29:16;41.05;;;24.38;;
60243;SDS011;46106;51.468;5.814;2022-07-21T03:31:42;36.60;;;24.38;;
60243;SDS011;46106;51.468;5.814;2022-07-21T03:34:07;38.97;;;25.08;;
60243;SDS011;46106;51.468;5.814;2022-07-21T03:36:33;43.83;;;25.45;;
60243;SDS011;46106;51.468;5.814;2022-07-21T03:38:58;44.28;;;26.67;;
60243;SDS011;46106;51.468;5.814;2022-07-21T03:41:24;40.28;;;25.58;;
60243;SDS011;46106;51.468;5.814;2022-07-21T03:43:49;39.65;;;25.70;;
60243;SDS011;46106;51.468;5.814;2022-07-21T03:46:15;44.45;;;26.77;;
60243;SDS011;46106;51.468;5.814;2022-07-21T03:48:40;47.67;;;27.52;;
60243;SDS011;46106;51.468;5.814;2022-07-21T03:51:06;47.85;;;26.80;;
60243;SDS011;46106;51.468;5.814;2022-07-21T03:53:31;44.38;;;26.95;;
60243;SDS011;46106;51.468;5.814;2022-07-21T03:55:57;44.83;;;27.88;;
60243;SDS011;46106;51.468;5.814;2022-07-21T03:58:22;47.35;;;28.52;;
60243;SDS011;46106;51.468;5.814;2022-07-21T04:00:48;45.75;;;27.13;;
60243;SDS011;46106;51.468;5.814;2022-07-21T04:03:13;41.05;;;26.95;;
60243;SDS011;46106;51.468;5.814;2022-07-21T04:05:39;45.35;;;29.00;;
60243;SDS011;46106;51.468;5.814;2022-07-21T04:08:06;45.67;;;28.05;;
60243;SDS011;46106;51.468;5.814;2022-07-21T04:10:35;42.00;;;28.00;;
60243;SDS011;46106;51.468;5.814;2022-07-21T04:13:03;49.60;;;27.48;;
60243;SDS011;46106;51.468;5.814;2022-07-21T04:15:30;46.45;;;28.77;;
60243;SDS011;46106;51.468;5.814;2022-07-21T04:17:56;44.70;;;28.55;;
60243;SDS011;46106;51.468;5.814;2022-07-21T04:20:22;42.35;;;28.58;;
60243;SDS011;46106;51.468;5.814;2022-07-21T04:22:48;47.97;;;28.35;;
60243;SDS011;46106;51.468;5.814;2022-07-21T04:25:15;43.42;;;29.05;;
60243;SDS011;46106;51.468;5.814;2022-07-21T04:27:42;44.13;;;29.08;;
60243;SDS011;46106;51.468;5.814;2022-07-21T04:30:10;44.22;;;27.95;;
60243;SDS011;46106;51.468;5.814;2022-07-21T04:32:38;46.65;;;29.65;;
60243;SDS011;46106;51.468;5.814;2022-07-21T04:35:04;46.83;;;29.42;;
60243;SDS011;46106;51.468;5.814;2022-07-21T04:37:31;45.20;;;29.27;;
60243;SDS011;46106;51.468;5.814;2022-07-21T04:39:56;49.33;;;29.77;;
60243;SDS011;46106;51.468;5.814;2022-07-21T04:42:22;46.30;;;29.88;;
60243;SDS011;46106;51.468;5.814;2022-07-21T04:44:47;54.25;;;29.55;;
60243;SDS011;46106;51.468;5.814;2022-07-21T04:47:13;44.88;;;29.83;;
60243;SDS011;46106;51.468;5.814;2022-07-21T04:49:38;50.05;;;28.33;;
60243;SDS011;46106;51.468;5.814;2022-07-21T04:52:04;45.90;;;28.88;;
60243;SDS011;46106;51.468;5.814;2022-07-21T04:54:30;48.83;;;29.05;;
60243;SDS011;46106;51.468;5.814;2022-07-21T04:56:55;46.47;;;27.83;;
60243;SDS011;46106;51.468;5.814;2022-07-21T04:59:21;41.67;;;27.33;;
60243;SDS011;46106;51.468;5.814;2022-07-21T05:01:46;44.70;;;26.33;;
60243;SDS011;46106;51.468;5.814;2022-07-21T05:04:12;40.35;;;25.42;;
60243;SDS011;46106;51.468;5.814;2022-07-21T05:06:37;43.53;;;26.08;;
60243;SDS011;46106;51.468;5.814;2022-07-21T05:09:03;38.15;;;24.38;;
60243;SDS011;46106;51.468;5.814;2022-07-21T05:11:28;41.20;;;25.48;;
60243;SDS011;46106;51.468;5.814;2022-07-21T05:13:54;39.42;;;25.50;;
60243;SDS011;46106;51.468;5.814;2022-07-21T05:16:20;36.70;;;25.15;;
60243;SDS011;46106;51.468;5.814;2022-07-21T05:18:46;44.28;;;25.08;;
60243;SDS011;46106;51.468;5.814;2022-07-21T05:21:12;39.30;;;23.98;;
60243;SDS011;46106;51.468;5.814;2022-07-21T05:23:38;42.20;;;23.95;;
60243;SDS011;46106;51.468;5.814;2022-07-21T05:26:03;39.80;;;24.17;;
60243;SDS011;46106;51.468;5.814;2022-07-21T05:28:29;41.10;;;23.67;;
60243;SDS011;46106;51.468;5.814;2022-07-21T05:30:55;37.40;;;23.30;;
60243;SDS011;46106;51.468;5.814;2022-07-21T05:33:20;38.83;;;23.27;;
60243;SDS011;46106;51.468;5.814;2022-07-21T05:35:46;34.25;;;21.65;;
60243;SDS011;46106;51.468;5.814;2022-07-21T05:38:11;38.28;;;21.92;;
60243;SDS011;46106;51.468;5.814;2022-07-21T05:40:37;41.55;;;22.88;;
60243;SDS011;46106;51.468;5.814;2022-07-21T05:43:03;37.33;;;22.02;;
60243;SDS011;46106;51.468;5.814;2022-07-21T05:45:29;37.65;;;20.95;;
60243;SDS011;46106;51.468;5.814;2022-07-21T05:47:54;37.40;;;22.55;;
60243;SDS011;46106;51.468;5.814;2022-07-21T05:50:20;33.53;;;20.73;;
60243;SDS011;46106;51.468;5.814;2022-07-21T05:52:45;33.40;;;21.25;;
60243;SDS011;46106;51.468;5.814;2022-07-21T05:55:11;39.83;;;21.15;;
60243;SDS011;46106;51.468;5.814;2022-07-21T05:57:37;33.42;;;20.20;;
60243;SDS011;46106;51.468;5.814;2022-07-21T06:00:03;31.60;;;19.90;;
60243;SDS011;46106;51.468;5.814;2022-07-21T06:02:29;39.90;;;20.80;;
60243;SDS011;46106;51.468;5.814;2022-07-21T06:04:56;32.25;;;20.88;;
60243;SDS011;46106;51.468;5.814;2022-07-21T06:07:22;32.95;;;20.90;;
60243;SDS011;46106;51.468;5.814;2022-07-21T06:09:47;36.10;;;19.95;;
60243;SDS011;46106;51.468;5.814;2022-07-21T06:12:13;35.03;;;19.63;;
60243;SDS011;46106;51.468;5.814;2022-07-21T06:14:38;31.20;;;19.80;;
60243;SDS011;46106;51.468;5.814;2022-07-21T06:17:04;35.42;;;19.38;;
60243;SDS011;46106;51.468;5.814;2022-07-21T06:19:30;34.65;;;19.20;;
60243;SDS011;46106;51.468;5.814;2022-07-21T06:21:56;32.60;;;19.70;;
60243;SDS011;46106;51.468;5.814;2022-07-21T06:24:22;31.60;;;20.90;;
60243;SDS011;46106;51.468;5.814;2022-07-21T06:26:48;36.47;;;20.95;;
60243;SDS011;46106;51.468;5.814;2022-07-21T06:29:13;40.08;;;20.10;;
60243;SDS011;46106;51.468;5.814;2022-07-21T06:31:39;34.75;;;20.35;;
60243;SDS011;46106;51.468;5.814;2022-07-21T06:34:04;32.15;;;19.95;;
60243;SDS011;46106;51.468;5.814;2022-07-21T06:36:30;35.95;;;21.88;;
60243;SDS011;46106;51.468;5.814;2022-07-21T06:38:55;37.20;;;21.38;;
60243;SDS011;46106;51.468;5.814;2022-07-21T06:41:21;38.38;;;21.48;;
60243;SDS011;46106;51.468;5.814;2022-07-21T06:43:47;35.40;;;21.05;;
60243;SDS011;46106;51.468;5.814;2022-07-21T06:46:12;42.15;;;21.55;;
60243;SDS011;46106;51.468;5.814;2022-07-21T06:48:38;40.05;;;22.08;;
60243;SDS011;46106;51.468;5.814;2022-07-21T06:51:03;39.75;;;21.77;;
60243;SDS011;46106;51.468;5.814;2022-07-21T06:53:29;43.65;;;23.10;;
60243;SDS011;46106;51.468;5.814;2022-07-21T06:55:54;36.80;;;21.15;;
60243;SDS011;46106;51.468;5.814;2022-07-21T06:58:21;37.92;;;22.50;;
60243;SDS011;46106;51.468;5.814;2022-07-21T07:00:48;44.30;;;22.10;;
60243;SDS011;46106;51.468;5.814;2022-07-21T07:03:15;54.25;;;22.27;;
60243;SDS011;46106;51.468;5.814;2022-07-21T07:05:42;36.53;;;23.25;;
60243;SDS011;46106;51.468;5.814;2022-07-21T07:08:09;40.10;;;22.48;;
60243;SDS011;46106;51.468;5.814;2022-07-21T07:10:34;37.60;;;21.63;;
60243;SDS011;46106;51.468;5.814;2022-07-21T07:13:00;36.88;;;22.55;;
60243;SDS011;46106;51.468;5.814;2022-07-21T07:15:27;41.47;;;23.38;;
60243;SDS011;46106;51.468;5.814;2022-07-21T07:17:53;38.95;;;22.70;;
60243;SDS011;46106;51.468;5.814;2022-07-21T07:20:20;40.20;;;24.10;;
60243;SDS011;46106;51.468;5.814;2022-07-21T07:22:46;42.15;;;23.63;;
60243;SDS011;46106;51.468;5.814;2022-07-21T07:25:11;41.13;;;24.10;;
60243;SDS011;46106;51.468;5.814;2022-07-21T07:27:37;47.45;;;24.67;;
60243;SDS011;46106;51.468;5.814;2022-07-21T07:30:03;49.15;;;26.35;;
60243;SDS011;46106;51.468;5.814;2022-07-21T07:32:29;48.30;;;26.25;;
60243;SDS011;46106;51.468;5.814;2022-07-21T07:34:54;47.28;;;26.95;;
60243;SDS011;46106;51.468;5.814;2022-07-21T07:37:20;47.55;;;25.13;;
60243;SDS011;46106;51.468;5.814;2022-07-21T07:39:45;41.05;;;24.63;;
60243;SDS011;46106;51.468;5.814;2022-07-21T07:42:11;46.20;;;24.17;;
60243;SDS011;46106;51.468;5.814;2022-07-21T07:44:36;52.38;;;25.20;;
60243;SDS011;46106;51.468;5.814;2022-07-21T07:47:02;50.50;;;28.42;;
60243;SDS011;46106;51.468;5.814;2022-07-21T07:49:28;50.70;;;27.85;;
60243;SDS011;46106;51.468;5.814;2022-07-21T07:51:55;53.63;;;27.83;;
60243;SDS011;46106;51.468;5.814;2022-07-21T07:54:21;44.47;;;26.60;;
60243;SDS011;46106;51.468;5.814;2022-07-21T07:56:46;44.25;;;25.17;;
60243;SDS011;46106;51.468;5.814;2022-07-21T07:59:11;44.97;;;25.80;;
60243;SDS011;46106;51.468;5.814;2022-07-21T08:01:37;39.33;;;24.55;;
60243;SDS011;46106;51.468;5.814;2022-07-21T08:04:03;46.60;;;25.55;;
60243;SDS011;46106;51.468;5.814;2022-07-21T08:06:28;45.63;;;25.42;;
60243;SDS011;46106;51.468;5.814;2022-07-21T08:08:54;49.60;;;25.63;;
60243;SDS011;46106;51.468;5.814;2022-07-21T08:11:19;45.55;;;25.05;;
60243;SDS011;46106;51.468;5.814;2022-07-21T08:13:45;42.00;;;23.92;;
60243;SDS011;46106;51.468;5.814;2022-07-21T08:16:10;49.25;;;24.40;;
60243;SDS011;46106;51.468;5.814;2022-07-21T08:18:37;41.13;;;23.52;;
60243;SDS011;46106;51.468;5.814;2022-07-21T08:21:03;46.63;;;24.35;;
60243;SDS011;46106;51.468;5.814;2022-07-21T08:23:28;40.92;;;23.02;;
60243;SDS011;46106;51.468;5.814;2022-07-21T08:25:54;45.13;;;23.05;;
60243;SDS011;46106;51.468;5.814;2022-07-21T08:28:19;38.45;;;21.85;;
60243;SDS011;46106;51.468;5.814;2022-07-21T08:30:46;43.97;;;24.05;;
60243;SDS011;46106;51.468;5.814;2022-07-21T08:33:12;39.40;;;22.15;;
60243;SDS011;46106;51.468;5.814;2022-07-21T08:35:37;35.83;;;23.00;;
60243;SDS011;46106;51.468;5.814;2022-07-21T08:38:04;42.97;;;25.38;;
60243;SDS011;46106;51.468;5.814;2022-07-21T08:40:32;48.47;;;26.10;;
60243;SDS011;46106;51.468;5.814;2022-07-21T08:43:00;51.17;;;27.13;;
60243;SDS011;46106;51.468;5.814;2022-07-21T08:45:26;54.88;;;28.75;;
60243;SDS011;46106;51.468;5.814;2022-07-21T08:47:53;61.67;;;30.17;;
60243;SDS011;46106;51.468;5.814;2022-07-21T08:50:24;52.72;;;27.85;;
60243;SDS011;46106;51.468;5.814;2022-07-21T08:52:52;42.60;;;25.70;;
60243;SDS011;46106;51.468;5.814;2022-07-21T08:55:17;40.75;;;25.15;;
60243;SDS011;46106;51.468;5.814;2022-07-21T08:57:43;43.85;;;25.00;;
60243;SDS011;46106;51.468;5.814;2022-07-21T09:00:09;49.13;;;24.98;;
60243;SDS011;46106;51.468;5.814;2022-07-21T09:02:35;36.10;;;22.85;;
60243;SDS011;46106;51.468;5.814;2022-07-21T09:05:03;42.92;;;24.20;;
60243;SDS011;46106;51.468;5.814;2022-07-21T09:10:32;38.08;;;23.33;;
60243;SDS011;46106;51.468;5.814;2022-07-21T09:13:02;43.35;;;23.55;;
60243;SDS011;46106;51.468;5.814;2022-07-21T09:15:30;37.50;;;22.45;;
60243;SDS011;46106;51.468;5.814;2022-07-21T09:18:17;34.35;;;21.27;;
60243;SDS011;46106;51.468;5.814;2022-07-21T09:20:47;33.50;;;21.25;;
60243;SDS011;46106;51.468;5.814;2022-07-21T09:23:15;32.70;;;22.15;;
60243;SDS011;46106;51.468;5.814;2022-07-21T09:25:43;34.92;;;20.83;;
60243;SDS011;46106;51.468;5.814;2022-07-21T09:30:50;29.85;;;17.38;;
60243;SDS011;46106;51.468;5.814;2022-07-21T09:38:34;25.38;;;14.75;;
60243;SDS011;46106;51.468;5.814;2022-07-21T09:41:08;21.55;;;12.45;;
60243;SDS011;46106;51.468;5.814;2022-07-21T09:43:42;28.35;;;13.10;;
60243;SDS011;46106;51.468;5.814;2022-07-21T09:48:47;27.58;;;13.50;;
60243;SDS011;46106;51.468;5.814;2022-07-21T09:51:20;20.83;;;13.20;;
60243;SDS011;46106;51.468;5.814;2022-07-21T09:53:58;20.55;;;12.20;;
60243;SDS011;46106;51.468;5.814;2022-07-21T09:56:36;23.35;;;12.35;;
60243;SDS011;46106;51.468;5.814;2022-07-21T09:59:03;22.02;;;13.43;;
60243;SDS011;46106;51.468;5.814;2022-07-21T10:01:30;23.40;;;12.00;;
60243;SDS011;46106;51.468;5.814;2022-07-21T10:03:57;27.20;;;15.02;;
60243;SDS011;46106;51.468;5.814;2022-07-21T10:06:25;25.35;;;15.23;;
60243;SDS011;46106;51.468;5.814;2022-07-21T10:08:53;23.92;;;15.77;;
60243;SDS011;46106;51.468;5.814;2022-07-21T10:11:20;25.50;;;15.07;;
60243;SDS011;46106;51.468;5.814;2022-07-21T10:13:46;24.20;;;16.00;;
60243;SDS011;46106;51.468;5.814;2022-07-21T10:16:12;30.98;;;17.17;;
60243;SDS011;46106;51.468;5.814;2022-07-21T10:18:39;25.83;;;16.98;;
60243;SDS011;46106;51.468;5.814;2022-07-21T10:21:21;24.13;;;15.18;;
60243;SDS011;46106;51.468;5.814;2022-07-21T10:23:54;23.42;;;15.10;;
60243;SDS011;46106;51.468;5.814;2022-07-21T10:26:21;27.30;;;16.25;;
60243;SDS011;46106;51.468;5.814;2022-07-21T10:28:46;22.70;;;14.60;;
60243;SDS011;46106;51.468;5.814;2022-07-21T10:31:13;21.27;;;13.43;;
60243;SDS011;46106;51.468;5.814;2022-07-21T10:36:56;20.27;;;13.55;;
60243;SDS011;46106;51.468;5.814;2022-07-21T10:41:39;26.38;;;14.35;;
60243;SDS011;46106;51.468;5.814;2022-07-21T10:47:05;19.50;;;11.98;;
60243;SDS011;46106;51.468;5.814;2022-07-21T10:49:50;22.05;;;12.82;;
60243;SDS011;46106;51.468;5.814;2022-07-21T10:57:35;16.35;;;10.40;;
60243;SDS011;46106;51.468;5.814;2022-07-21T11:02:48;9.35;;;7.03;;
60243;SDS011;46106;51.468;5.814;2022-07-21T11:05:16;10.75;;;7.50;;
60243;SDS011;46106;51.468;5.814;2022-07-21T11:10:47;15.48;;;9.82;;
60243;SDS011;46106;51.468;5.814;2022-07-21T11:13:14;10.90;;;8.52;;
60243;SDS011;46106;51.468;5.814;2022-07-21T11:15:45;17.13;;;9.88;;
60243;SDS011;46106;51.468;5.814;2022-07-21T11:20:43;14.75;;;10.13;;
60243;SDS011;46106;51.468;5.814;2022-07-21T11:23:09;18.67;;;12.02;;
60243;SDS011;46106;51.468;5.814;2022-07-21T11:25:34;18.55;;;10.25;;
60243;SDS011;46106;51.468;5.814;2022-07-21T11:28:00;17.48;;;12.48;;
60243;SDS011;46106;51.468;5.814;2022-07-21T11:30:25;17.42;;;10.52;;
60243;SDS011;46106;51.468;5.814;2022-07-21T11:32:51;16.55;;;12.65;;
60243;SDS011;46106;51.468;5.814;2022-07-21T11:35:17;17.42;;;11.25;;
60243;SDS011;46106;51.468;5.814;2022-07-21T11:37:44;22.13;;;13.02;;
60243;SDS011;46106;51.468;5.814;2022-07-21T11:40:12;19.00;;;11.30;;
60243;SDS011;46106;51.468;5.814;2022-07-21T11:42:42;22.83;;;13.85;;
60243;SDS011;46106;51.468;5.814;2022-07-21T11:45:09;18.98;;;11.75;;
60243;SDS011;46106;51.468;5.814;2022-07-21T11:47:36;21.23;;;14.73;;
60243;SDS011;46106;51.468;5.814;2022-07-21T11:50:03;19.92;;;12.35;;
60243;SDS011;46106;51.468;5.814;2022-07-21T11:52:32;20.67;;;12.25;;
60243;SDS011;46106;51.468;5.814;2022-07-21T11:55:00;24.17;;;15.40;;
60243;SDS011;46106;51.468;5.814;2022-07-21T11:57:27;25.60;;;14.55;;
60243;SDS011;46106;51.468;5.814;2022-07-21T11:59:53;25.77;;;15.85;;
60243;SDS011;46106;51.468;5.814;2022-07-21T12:02:22;28.67;;;17.65;;
60243;SDS011;46106;51.468;5.814;2022-07-21T12:10:11;33.53;;;19.63;;
60243;SDS011;46106;51.468;5.814;2022-07-21T12:12:39;29.83;;;18.20;;
60243;SDS011;46106;51.468;5.814;2022-07-21T12:17:36;38.05;;;20.52;;
60243;SDS011;46106;51.468;5.814;2022-07-21T12:20:04;29.40;;;18.38;;
60243;SDS011;46106;51.468;5.814;2022-07-21T12:22:32;34.15;;;17.08;;
60243;SDS011;46106;51.468;5.814;2022-07-21T12:24:58;38.67;;;18.60;;
60243;SDS011;46106;51.468;5.814;2022-07-21T12:27:24;33.10;;;19.42;;
60243;SDS011;46106;51.468;5.814;2022-07-21T12:29:50;37.45;;;18.73;;
60243;SDS011;46106;51.468;5.814;2022-07-21T12:37:58;31.75;;;16.35;;
60243;SDS011;46106;51.468;5.814;2022-07-21T12:40:27;36.10;;;17.45;;
60243;SDS011;46106;51.468;5.814;2022-07-21T12:45:30;26.63;;;16.80;;
60243;SDS011;46106;51.468;5.814;2022-07-21T12:48:09;27.02;;;17.00;;
60243;SDS011;46106;51.468;5.814;2022-07-21T12:50:35;29.52;;;16.60;;
60243;SDS011;46106;51.468;5.814;2022-07-21T12:53:05;20.10;;;13.77;;
60243;SDS011;46106;51.468;5.814;2022-07-21T12:55:35;19.30;;;11.75;;
60243;SDS011;46106;51.468;5.814;2022-07-21T12:58:02;22.73;;;14.43;;
60243;SDS011;46106;51.468;5.814;2022-07-21T13:00:28;22.20;;;13.48;;
60243;SDS011;46106;51.468;5.814;2022-07-21T13:02:54;22.75;;;11.68;;
60243;SDS011;46106;51.468;5.814;2022-07-21T13:05:21;17.50;;;12.13;;
60243;SDS011;46106;51.468;5.814;2022-07-21T13:07:48;18.95;;;12.05;;
60243;SDS011;46106;51.468;5.814;2022-07-21T13:10:13;17.30;;;12.00;;
60243;SDS011;46106;51.468;5.814;2022-07-21T13:12:40;21.92;;;12.73;;
60243;SDS011;46106;51.468;5.814;2022-07-21T13:15:06;18.25;;;12.23;;
60243;SDS011;46106;51.468;5.814;2022-07-21T13:17:33;18.02;;;11.60;;
60243;SDS011;46106;51.468;5.814;2022-07-21T13:19:58;16.48;;;12.13;;
60243;SDS011;46106;51.468;5.814;2022-07-21T13:22:24;19.02;;;11.32;;
60243;SDS011;46106;51.468;5.814;2022-07-21T13:24:49;17.85;;;12.00;;
60243;SDS011;46106;51.468;5.814;2022-07-21T13:27:15;17.27;;;11.48;;
60243;SDS011;46106;51.468;5.814;2022-07-21T13:29:41;20.38;;;14.70;;
60243;SDS011;46106;51.468;5.814;2022-07-21T13:32:06;23.25;;;13.20;;
60243;SDS011;46106;51.468;5.814;2022-07-21T13:34:32;18.42;;;13.88;;
60243;SDS011;46106;51.468;5.814;2022-07-21T13:36:58;18.60;;;12.05;;
60243;SDS011;46106;51.468;5.814;2022-07-21T13:39:24;19.45;;;10.52;;
60243;SDS011;46106;51.468;5.814;2022-07-21T13:41:55;17.73;;;10.93;;
60243;SDS011;46106;51.468;5.814;2022-07-21T13:44:21;17.48;;;8.88;;
60243;SDS011;46106;51.468;5.814;2022-07-21T13:46:46;14.77;;;8.88;;
60243;SDS011;46106;51.468;5.814;2022-07-21T13:49:12;14.68;;;9.35;;
60243;SDS011;46106;51.468;5.814;2022-07-21T13:51:38;21.40;;;7.53;;
60243;SDS011;46106;51.468;5.814;2022-07-21T13:54:03;14.00;;;7.57;;
60243;SDS011;46106;51.468;5.814;2022-07-21T13:56:29;11.90;;;7.25;;
60243;SDS011;46106;51.468;5.814;2022-07-21T13:58:55;14.52;;;8.50;;
60243;SDS011;46106;51.468;5.814;2022-07-21T14:01:20;12.73;;;7.47;;
60243;SDS011;46106;51.468;5.814;2022-07-21T14:03:47;14.45;;;8.00;;
60243;SDS011;46106;51.468;5.814;2022-07-21T14:06:14;15.02;;;8.05;;
60243;SDS011;46106;51.468;5.814;2022-07-21T14:08:40;12.38;;;8.10;;
60243;SDS011;46106;51.468;5.814;2022-07-21T14:11:05;16.52;;;6.88;;
60243;SDS011;46106;51.468;5.814;2022-07-21T14:13:32;11.13;;;5.93;;
60243;SDS011;46106;51.468;5.814;2022-07-21T14:15:58;9.80;;;5.90;;
60243;SDS011;46106;51.468;5.814;2022-07-21T14:18:24;10.77;;;6.78;;
60243;SDS011;46106;51.468;5.814;2022-07-21T14:20:49;15.13;;;6.90;;
60243;SDS011;46106;51.468;5.814;2022-07-21T14:23:20;12.57;;;7.30;;
60243;SDS011;46106;51.468;5.814;2022-07-21T14:25:47;13.32;;;6.25;;
60243;SDS011;46106;51.468;5.814;2022-07-21T14:28:14;9.93;;;6.38;;
60243;SDS011;46106;51.468;5.814;2022-07-21T14:30:40;18.33;;;7.93;;
60243;SDS011;46106;51.468;5.814;2022-07-21T14:33:06;19.40;;;8.15;;
60243;SDS011;46106;51.468;5.814;2022-07-21T14:35:32;12.23;;;8.15;;
60243;SDS011;46106;51.468;5.814;2022-07-21T14:37:57;24.40;;;8.80;;
60243;SDS011;46106;51.468;5.814;2022-07-21T14:40:23;17.83;;;7.82;;
60243;SDS011;46106;51.468;5.814;2022-07-21T14:42:49;16.80;;;7.82;;
60243;SDS011;46106;51.468;5.814;2022-07-21T14:45:17;16.73;;;8.55;;
60243;SDS011;46106;51.468;5.814;2022-07-21T14:47:44;17.85;;;9.43;;
60243;SDS011;46106;51.468;5.814;2022-07-21T14:50:11;15.88;;;9.60;;
60243;SDS011;46106;51.468;5.814;2022-07-21T14:52:37;18.80;;;9.68;;
60243;SDS011;46106;51.468;5.814;2022-07-21T14:55:04;22.45;;;11.07;;
60243;SDS011;46106;51.468;5.814;2022-07-21T14:57:30;21.45;;;11.05;;
60243;SDS011;46106;51.468;5.814;2022-07-21T14:59:56;23.08;;;12.23;;
60243;SDS011;46106;51.468;5.814;2022-07-21T15:02:22;26.63;;;12.02;;
60243;SDS011;46106;51.468;5.814;2022-07-21T15:04:48;21.48;;;12.88;;
60243;SDS011;46106;51.468;5.814;2022-07-21T15:07:13;19.23;;;13.90;;
60243;SDS011;46106;51.468;5.814;2022-07-21T15:09:39;20.27;;;13.40;;
60243;SDS011;46106;51.468;5.814;2022-07-21T15:12:05;26.50;;;13.63;;
60243;SDS011;46106;51.468;5.814;2022-07-21T15:14:30;30.27;;;13.52;;